createdAt,value
2023-05-10T00:03:59.102Z,8.31
2023-05-10T00:08:07.506Z,8.21
2023-05-10T00:12:15.767Z,8.11
2023-05-10T00:16:24.044Z,8.02
2023-05-10T00:20:31.420Z,7.94
2023-05-10T00:24:39.947Z,7.91
2023-05-10T00:28:47.711Z,7.92
2023-05-10T00:32:55.690Z,7.90
2023-05-10T00:37:03.813Z,7.86
2023-05-10T00:41:11.982Z,7.80
2023-05-10T00:45:20.295Z,7.76
2023-05-10T00:49:28.442Z,7.68
2023-05-10T00:53:38.029Z,7.60
2023-05-10T00:57:45.936Z,7.52
2023-05-10T01:01:53.830Z,7.45
2023-05-10T01:06:01.873Z,7.42
2023-05-10T01:10:11.813Z,7.40
2023-05-10T01:14:22.570Z,7.41
2023-05-10T01:18:31.415Z,7.41
2023-05-10T01:22:55.531Z,7.37
2023-05-10T01:27:20.948Z,7.32
2023-05-10T01:31:38.128Z,7.27
2023-05-10T01:35:53.246Z,7.19
2023-05-10T01:40:06.424Z,7.13
2023-05-10T01:44:22.249Z,7.06
2023-05-10T01:48:31.555Z,7.03
2023-05-10T01:52:43.416Z,7.02
2023-05-10T01:56:52.992Z,7.02
2023-05-10T02:01:02.826Z,6.95
2023-05-10T02:05:11.723Z,6.89
2023-05-10T02:09:20.573Z,6.83
2023-05-10T02:13:30.228Z,6.76
2023-05-10T02:17:39.874Z,6.70
2023-05-10T02:21:47.259Z,6.63
2023-05-10T02:25:56.141Z,6.61
2023-05-10T02:30:04.074Z,6.62
2023-05-10T02:34:12.399Z,6.60
2023-05-10T02:38:21.728Z,6.56
2023-05-10T02:42:31.383Z,6.50
2023-05-10T02:46:39.583Z,6.45
2023-05-10T02:50:52.547Z,6.38
2023-05-10T02:55:05.378Z,6.35
2023-05-10T02:59:16.083Z,6.34
2023-05-10T03:03:24.029Z,6.35
2023-05-10T03:07:32.115Z,6.33
2023-05-10T03:11:50.721Z,6.28
2023-05-10T03:16:05.069Z,6.22
2023-05-10T03:20:15.968Z,6.18
2023-05-10T03:24:25.655Z,6.14
2023-05-10T03:28:37.724Z,6.15
2023-05-10T03:32:45.662Z,6.16
2023-05-10T03:36:53.050Z,6.15
2023-05-10T03:41:00.988Z,6.14
2023-05-10T03:45:11.850Z,6.13
2023-05-10T03:49:19.936Z,6.09
2023-05-10T03:53:28.030Z,6.10
2023-05-10T03:57:35.506Z,6.14
2023-05-10T04:01:43.597Z,6.16
2023-05-10T04:05:51.038Z,6.17
2023-05-10T04:09:59.328Z,6.16
2023-05-10T04:14:06.796Z,6.18
2023-05-10T04:18:14.997Z,6.22
2023-05-10T04:22:22.990Z,6.29
2023-05-10T04:26:30.760Z,6.36
2023-05-10T04:30:39.645Z,6.41
2023-05-10T04:34:48.052Z,6.46
2023-05-10T04:38:56.231Z,6.51
2023-05-10T04:43:04.252Z,6.59
2023-05-10T04:47:12.924Z,6.71
2023-05-10T04:51:21.684Z,6.82
2023-05-10T04:55:30.092Z,6.92
2023-05-10T04:59:40.208Z,7.03
2023-05-10T05:03:47.878Z,7.12
2023-05-10T05:07:57.352Z,7.26
2023-05-10T05:12:04.953Z,7.44
2023-05-10T05:16:14.023Z,7.63
2023-05-10T05:20:22.297Z,7.82
2023-05-10T05:24:29.912Z,8.05
2023-05-10T05:28:39.011Z,8.35
2023-05-10T05:32:48.305Z,8.63
2023-05-10T05:36:56.773Z,8.89
2023-05-10T05:41:05.115Z,9.20
2023-05-10T05:45:14.539Z,9.49
2023-05-10T05:49:25.370Z,9.71
2023-05-10T05:53:33.492Z,9.95
2023-05-10T05:57:42.051Z,10.21
2023-05-10T06:01:50.966Z,10.46
2023-05-10T06:05:58.888Z,10.71
2023-05-10T06:10:08.405Z,10.96
2023-05-10T06:14:16.143Z,11.22
2023-05-10T06:18:24.526Z,11.46
2023-05-10T06:22:33.026Z,11.69
2023-05-10T06:26:40.616Z,11.89
2023-05-10T06:30:49.063Z,12.12
2023-05-10T06:34:57.256Z,12.35
2023-05-10T06:39:05.020Z,12.58
2023-05-10T06:43:13.197Z,12.79
2023-05-10T06:47:21.613Z,13.05
2023-05-10T06:51:29.656Z,13.35
2023-05-10T06:55:37.362Z,13.61
2023-05-10T06:59:45.680Z,13.78
2023-05-10T07:03:53.986Z,13.96
2023-05-10T07:08:02.735Z,14.14
2023-05-10T07:12:14.693Z,14.33
2023-05-10T07:16:23.282Z,14.54
2023-05-10T07:20:31.164Z,14.72
2023-05-10T07:24:39.861Z,14.82
2023-05-10T07:28:51.250Z,14.91
2023-05-10T07:32:58.965Z,15.05
2023-05-10T07:37:07.378Z,15.23
2023-05-10T07:41:15.689Z,15.42
2023-05-10T07:45:24.529Z,15.55
2023-05-10T07:49:32.075Z,15.67
2023-05-10T07:53:40.280Z,15.81
2023-05-10T07:57:47.932Z,15.89
2023-05-10T08:01:55.674Z,16.04
2023-05-10T08:06:03.423Z,16.13
2023-05-10T08:10:13.642Z,16.20
2023-05-10T08:14:21.214Z,16.33
2023-05-10T08:18:29.591Z,16.52
2023-05-10T08:22:37.448Z,16.69
2023-05-10T08:26:56.960Z,16.83
2023-05-10T08:31:13.852Z,17.01
2023-05-10T08:35:25.415Z,17.15
2023-05-10T08:39:40.792Z,17.26
2023-05-10T08:43:53.271Z,17.33
2023-05-10T08:48:03.609Z,17.36
2023-05-10T08:52:19.685Z,17.40
2023-05-10T08:56:35.321Z,17.51
2023-05-10T09:00:47.518Z,17.66
2023-05-10T09:04:55.703Z,17.82
2023-05-10T09:09:04.404Z,17.96
2023-05-10T09:13:13.968Z,18.05
2023-05-10T09:17:22.153Z,18.14
2023-05-10T09:21:30.811Z,18.23
2023-05-10T09:25:39.757Z,18.32
2023-05-10T09:29:47.531Z,18.37
2023-05-10T09:33:56.094Z,18.47
2023-05-10T09:38:05.346Z,18.52
2023-05-10T09:42:14.065Z,18.55
2023-05-10T09:46:22.504Z,18.65
2023-05-10T09:50:31.633Z,18.76
2023-05-10T09:54:39.385Z,18.91
2023-05-10T09:58:47.306Z,19.10
2023-05-10T10:03:00.992Z,19.22
2023-05-10T10:07:11.486Z,19.29
2023-05-10T10:11:19.436Z,19.37
2023-05-10T10:15:28.608Z,19.46
2023-05-10T10:19:37.626Z,19.51
2023-05-10T10:23:46.431Z,19.61
2023-05-10T10:28:05.040Z,19.76
2023-05-10T10:32:24.660Z,19.86
2023-05-10T10:36:34.488Z,19.83
2023-05-10T10:40:42.538Z,19.88
2023-05-10T10:44:50.652Z,19.81
2023-05-10T10:49:14.608Z,19.67
2023-05-10T10:53:22.364Z,19.73
2023-05-10T10:57:31.337Z,19.60
2023-05-10T11:01:38.968Z,19.65
2023-05-10T11:05:47.934Z,19.80
2023-05-10T11:09:59.128Z,19.87
2023-05-10T11:14:09.401Z,20.07
2023-05-10T11:18:25.163Z,20.18
2023-05-10T11:22:33.441Z,20.27
2023-05-10T11:26:41.232Z,20.24
2023-05-10T11:30:48.699Z,20.05
2023-05-10T11:34:56.716Z,20.31
2023-05-10T11:39:05.012Z,20.78
2023-05-10T11:43:13.813Z,21.19
2023-05-10T11:47:22.883Z,21.56
2023-05-10T11:51:32.450Z,21.52
2023-05-10T11:55:40.295Z,21.56
2023-05-10T11:59:48.223Z,21.41
2023-05-10T12:03:59.900Z,21.48
2023-05-10T12:08:18.462Z,21.22
2023-05-10T12:12:26.320Z,21.16
2023-05-10T12:16:34.619Z,21.40
2023-05-10T12:20:43.604Z,21.73
2023-05-10T12:24:52.313Z,21.61
2023-05-10T12:29:16.843Z,21.35
2023-05-10T12:33:24.766Z,21.46
2023-05-10T12:37:37.942Z,21.48
2023-05-10T12:41:46.506Z,21.35
2023-05-10T12:45:54.330Z,20.96
2023-05-10T12:50:04.098Z,20.62
2023-05-10T12:54:11.877Z,20.46
2023-05-10T12:58:31.968Z,20.31
2023-05-10T13:02:43.469Z,20.18
2023-05-10T13:06:51.274Z,20.09
2023-05-10T13:11:04.033Z,20.05
2023-05-10T13:15:14.345Z,20.10
2023-05-10T13:19:22.582Z,20.14
2023-05-10T13:23:31.538Z,20.23
2023-05-10T13:27:39.663Z,20.55
2023-05-10T13:31:49.373Z,20.65
2023-05-10T13:35:57.419Z,20.80
2023-05-10T13:40:05.474Z,21.07
2023-05-10T13:44:14.137Z,20.96
2023-05-10T13:48:22.181Z,20.97
2023-05-10T13:52:30.728Z,20.93
2023-05-10T13:56:39.348Z,20.75
2023-05-10T14:00:47.921Z,20.65
2023-05-10T14:04:56.098Z,20.72
2023-05-10T14:09:03.972Z,20.73
2023-05-10T14:13:11.532Z,20.64
2023-05-10T14:17:19.621Z,20.58
2023-05-10T14:21:27.685Z,20.56
2023-05-10T14:25:36.027Z,20.50
2023-05-10T14:29:43.758Z,20.50
2023-05-10T14:33:51.846Z,20.58
2023-05-10T14:38:00.269Z,20.79
2023-05-10T14:42:08.334Z,20.93
2023-05-10T14:46:17.279Z,20.98
2023-05-10T14:54:42.060Z,20.73
2023-05-10T14:58:50.030Z,20.64
2023-05-10T15:02:58.989Z,20.59
2023-05-10T15:07:08.743Z,20.54
2023-05-10T15:11:19.199Z,20.54
2023-05-10T15:15:27.052Z,20.51
2023-05-10T15:19:35.667Z,20.41
2023-05-10T15:23:43.675Z,20.32
2023-05-10T15:27:51.412Z,20.23
2023-05-10T15:31:59.323Z,20.15
2023-05-10T15:36:09.021Z,20.11
2023-05-10T15:40:17.643Z,20.09
2023-05-10T15:44:26.311Z,20.09
2023-05-10T15:48:34.136Z,20.06
2023-05-10T15:52:42.459Z,20.03
2023-05-10T15:56:50.568Z,19.99
2023-05-10T16:00:59.168Z,20.02
2023-05-10T16:05:08.882Z,20.29
2023-05-10T16:09:17.551Z,20.62
2023-05-10T16:13:28.038Z,20.84
2023-05-10T16:17:35.723Z,21.11
2023-05-10T16:21:43.588Z,21.24
2023-05-10T16:25:51.533Z,21.10
2023-05-10T16:30:02.368Z,20.84
2023-05-10T16:34:10.640Z,20.65
2023-05-10T16:38:18.415Z,20.52
2023-05-10T16:42:26.647Z,20.40
2023-05-10T16:46:35.158Z,20.34
2023-05-10T16:50:46.048Z,20.34
2023-05-10T16:54:53.941Z,20.34
2023-05-10T16:59:03.967Z,20.36
2023-05-10T17:03:12.726Z,20.39
2023-05-10T17:07:22.650Z,20.36
2023-05-10T17:11:32.407Z,20.26
2023-05-10T17:15:41.412Z,20.08
2023-05-10T17:19:50.102Z,19.90
2023-05-10T17:23:57.866Z,19.72
2023-05-10T17:28:06.995Z,19.56
2023-05-10T17:32:14.652Z,19.43
2023-05-10T17:36:22.931Z,19.32
2023-05-10T17:40:30.888Z,19.17
2023-05-10T17:44:39.286Z,19.01
2023-05-10T17:48:47.306Z,18.90
2023-05-10T17:52:55.336Z,18.76
2023-05-10T17:57:03.853Z,18.65
2023-05-10T18:01:12.655Z,18.52
2023-05-10T18:05:21.896Z,18.39
2023-05-10T18:09:32.390Z,18.30
2023-05-10T18:13:40.818Z,18.21
2023-05-10T18:17:48.883Z,18.11
2023-05-10T18:21:56.758Z,18.01
2023-05-10T18:26:04.756Z,17.87
2023-05-10T18:30:14.853Z,17.73
2023-05-10T18:34:22.766Z,17.61
2023-05-10T18:38:31.469Z,17.51
2023-05-10T18:42:39.303Z,17.45
2023-05-10T18:46:46.815Z,17.41
2023-05-10T18:50:55.526Z,17.37
2023-05-10T18:55:06.884Z,17.32
2023-05-10T18:59:16.768Z,17.28
2023-05-10T19:03:24.224Z,17.25
2023-05-10T19:07:32.749Z,17.24
2023-05-10T19:11:40.220Z,17.21
2023-05-10T19:15:48.803Z,17.16
2023-05-10T19:19:57.750Z,17.10
2023-05-10T19:24:05.665Z,17.08
2023-05-10T19:28:13.655Z,17.06
2023-05-10T19:32:22.950Z,17.03
2023-05-10T19:36:31.253Z,16.99
2023-05-10T19:40:39.062Z,16.97
2023-05-10T19:44:47.393Z,16.93
2023-05-10T19:48:59.362Z,16.88
2023-05-10T19:53:09.795Z,16.83
2023-05-10T19:57:19.159Z,16.78
2023-05-10T20:01:27.059Z,16.71
2023-05-10T20:05:35.509Z,16.64
2023-05-10T20:09:43.320Z,16.56
2023-05-10T20:13:50.915Z,16.46
2023-05-10T20:17:58.739Z,16.37
2023-05-10T20:22:09.420Z,16.28
2023-05-10T20:26:17.172Z,16.20
2023-05-10T20:30:25.451Z,16.13
2023-05-10T20:34:33.789Z,16.06
2023-05-10T20:38:41.332Z,15.98
2023-05-10T20:42:49.792Z,15.88
2023-05-10T20:46:57.135Z,15.79
2023-05-10T20:51:06.770Z,15.70
2023-05-10T20:55:15.030Z,15.60
2023-05-10T20:59:23.665Z,15.48
2023-05-10T21:03:33.484Z,15.36
2023-05-10T21:07:41.497Z,15.25
2023-05-10T21:11:49.838Z,15.15
2023-05-10T21:15:59.378Z,15.03
2023-05-10T21:20:08.434Z,14.95
2023-05-10T21:24:16.966Z,14.85
2023-05-10T21:28:25.189Z,14.76
2023-05-10T21:32:34.536Z,14.66
2023-05-10T21:36:42.213Z,14.50
2023-05-10T21:40:50.089Z,14.35
2023-05-10T21:44:59.215Z,14.22
2023-05-10T21:49:07.224Z,14.08
2023-05-10T21:53:15.206Z,13.97
2023-05-10T21:57:23.225Z,13.87
2023-05-10T22:01:31.290Z,13.77
2023-05-10T22:05:39.209Z,13.71
2023-05-10T22:09:47.337Z,13.68
2023-05-10T22:13:55.208Z,13.69
2023-05-10T22:18:03.501Z,13.68
2023-05-10T22:22:11.380Z,13.66
2023-05-10T22:26:19.385Z,13.63
2023-05-10T22:30:27.125Z,13.67
2023-05-10T22:34:35.589Z,13.71
2023-05-10T22:38:48.535Z,13.77
2023-05-10T22:42:59.080Z,13.77
2023-05-10T22:47:09.604Z,13.76
2023-05-10T22:51:17.329Z,13.73
2023-05-10T22:55:25.259Z,13.71
2023-05-10T22:59:33.331Z,13.66
2023-05-10T23:03:41.251Z,13.62
2023-05-10T23:07:53.345Z,13.59
2023-05-10T23:12:01.306Z,13.57
2023-05-10T23:16:12.220Z,13.57
2023-05-10T23:20:20.470Z,13.56
2023-05-10T23:24:29.411Z,13.54
2023-05-10T23:28:37.205Z,13.52
2023-05-10T23:32:45.292Z,13.49
2023-05-10T23:36:52.913Z,13.46
2023-05-10T23:41:00.668Z,13.44
2023-05-10T23:45:10.050Z,13.40
2023-05-10T23:49:18.572Z,13.36
2023-05-10T23:53:27.104Z,13.34
2023-05-10T23:57:36.441Z,13.32
